Time;durP1;ratioP1;P1;durP2;ratioP2;P2;SDS_P1;SDS_P2;PMS_P1;PMS_P2;Temp;Humidity;BMP_temperature;BMP_pressure;BME280_temperature;BME280_humidity;BME280_pressure;Samples;Min_cycle;Max_cycle;Signal;HPM_P1;HPM_P2
2022/11/21 00:01:16;;;;;;;1999.90;999.90;;;1.60;99.90;;;;;;5032972;28;20064;-68
2022/11/21 00:03:42;;;;;;;1999.90;999.90;;;1.60;99.90;;;;;;5040053;28;20041;-68
2022/11/21 00:06:07;;;;;;;1999.90;999.90;;;1.60;99.90;;;;;;5039070;28;20052;-68
2022/11/21 00:08:33;;;;;;;1999.90;999.90;;;1.60;99.90;;;;;;5046283;28;20064;-68
2022/11/21 00:10:59;;;;;;;1999.90;999.90;;;1.60;99.90;;;;;;5043365;28;20045;-68
2022/11/21 00:13:25;;;;;;;1999.90;999.90;;;1.60;99.90;;;;;;5039817;28;20038;-68
2022/11/21 00:15:51;;;;;;;1999.90;999.90;;;1.50;99.90;;;;;;5042838;28;20496;-68
2022/11/21 00:18:16;;;;;;;1999.90;999.90;;;1.50;99.90;;;;;;5044925;28;20048;-68
2022/11/21 00:20:42;;;;;;;1999.90;999.90;;;1.40;99.90;;;;;;5046841;28;20044;-68
2022/11/21 00:23:09;;;;;;;1999.90;999.90;;;1.40;99.90;;;;;;5047173;28;20082;-68
2022/11/21 00:25:35;;;;;;;1999.90;999.90;;;1.40;99.90;;;;;;5045214;28;20505;-68
2022/11/21 00:28:01;;;;;;;1999.90;999.90;;;1.40;99.90;;;;;;5025538;28;20394;-68
2022/11/21 00:30:27;;;;;;;1999.90;999.90;;;1.30;99.90;;;;;;5042737;28;20048;-68
2022/11/21 00:32:52;;;;;;;1999.90;999.90;;;1.30;99.90;;;;;;5046309;28;20037;-68
2022/11/21 00:35:18;;;;;;;1999.90;999.90;;;1.30;99.90;;;;;;5041920;28;20489;-68
2022/11/21 00:37:44;;;;;;;1999.90;999.90;;;1.30;99.90;;;;;;5038142;28;20052;-68
2022/11/21 00:40:10;;;;;;;1999.90;999.90;;;1.30;99.90;;;;;;5040711;28;20041;-68
2022/11/21 00:42:35;;;;;;;1999.90;999.90;;;1.30;99.90;;;;;;5044669;28;20041;-68
2022/11/21 00:45:01;;;;;;;1999.90;999.90;;;1.30;99.90;;;;;;5040863;28;20044;-68
2022/11/21 00:47:26;;;;;;;1999.90;999.90;;;1.20;99.90;;;;;;5042361;28;20039;-68
2022/11/21 00:49:52;;;;;;;1999.90;999.90;;;1.20;99.90;;;;;;5045520;28;20085;-68
2022/11/21 00:52:17;;;;;;;1999.90;999.90;;;1.20;99.90;;;;;;5038538;28;20044;-68
2022/11/21 00:54:43;;;;;;;1999.90;999.90;;;1.10;99.90;;;;;;5038883;28;20044;-68
2022/11/21 00:57:09;;;;;;;1999.90;999.90;;;1.10;99.90;;;;;;5031952;28;20041;-68
2022/11/21 00:59:34;;;;;;;1999.90;999.90;;;1.00;99.90;;;;;;5041586;28;20041;-68
2022/11/21 01:02:00;;;;;;;1999.90;999.90;;;0.90;99.90;;;;;;5040413;28;20481;-68
2022/11/21 01:04:29;;;;;;;1999.90;999.90;;;0.90;99.90;;;;;;5053505;28;20509;-68
2022/11/21 01:06:55;;;;;;;1999.90;999.90;;;0.80;99.90;;;;;;5021398;28;20052;-68
2022/11/21 01:09:20;;;;;;;1999.90;999.90;;;0.70;99.90;;;;;;5041377;28;20033;-68
2022/11/21 01:11:46;;;;;;;1999.90;999.90;;;0.70;99.90;;;;;;5040459;28;20029;-68
2022/11/21 01:14:11;;;;;;;1999.90;999.90;;;0.60;99.90;;;;;;5040655;28;20102;-68
2022/11/21 01:16:37;;;;;;;1999.90;999.90;;;0.50;99.90;;;;;;5021935;28;20116;-68
2022/11/21 01:19:03;;;;;;;1999.90;999.90;;;0.50;99.90;;;;;;5039219;28;20037;-68
2022/11/21 01:21:30;;;;;;;1999.90;999.90;;;0.40;99.90;;;;;;5041179;28;20516;-68
2022/11/21 01:23:59;;;;;;;1999.90;999.90;;;0.30;99.90;;;;;;5050795;28;20049;-68
2022/11/21 01:26:26;;;;;;;1999.90;999.90;;;0.30;99.90;;;;;;5042693;28;20512;-68
2022/11/21 01:28:52;;;;;;;1999.90;999.90;;;0.20;99.90;;;;;;5016785;28;20045;-68
2022/11/21 01:31:23;;;;;;;1999.90;999.90;;;0.10;99.90;;;;;;5033613;28;20041;-68
2022/11/21 01:33:49;;;;;;;1999.90;999.90;;;0.00;99.90;;;;;;5041293;28;20029;-68
2022/11/21 01:36:18;;;;;;;1999.90;999.90;;;-0.10;99.90;;;;;;5022892;28;20099;-68
2022/11/21 01:38:46;;;;;;;1999.90;999.90;;;-0.10;99.90;;;;;;5038398;28;20052;-68
2022/11/21 01:41:15;;;;;;;1999.90;999.90;;;-0.20;99.90;;;;;;5053157;28;20076;-68
2022/11/21 01:43:42;;;;;;;1999.90;999.90;;;-0.20;99.90;;;;;;5041669;28;20455;-68
2022/11/21 01:46:07;;;;;;;1999.90;999.90;;;-0.20;99.90;;;;;;5038216;28;20041;-68
2022/11/21 01:48:53;;;;;;;1999.90;999.90;;;-0.30;99.90;;;;;;5042961;28;20052;-68
2022/11/21 01:51:27;;;;;;;1999.90;999.90;;;-0.30;99.90;;;;;;5040943;28;20073;-68
2022/11/21 01:54:01;;;;;;;1999.90;999.90;;;-0.40;99.90;;;;;;5039710;28;20039;-68
2022/11/21 01:56:31;;;;;;;1999.90;999.90;;;-0.40;99.90;;;;;;5036445;28;20041;-68
2022/11/21 01:59:00;;;;;;;1999.90;999.90;;;-0.50;99.90;;;;;;5037582;28;20091;-68
2022/11/21 02:01:27;;;;;;;1999.90;999.90;;;-0.50;99.90;;;;;;5044936;28;20060;-68
2022/11/21 02:03:54;;;;;;;1999.90;999.90;;;-0.50;99.90;;;;;;5035779;28;20227;-68
2022/11/21 02:06:20;;;;;;;1999.90;999.90;;;-0.60;99.90;;;;;;5042393;28;20388;-68
2022/11/21 02:08:46;;;;;;;1999.90;999.90;;;-0.60;99.90;;;;;;5034730;28;20037;-68
2022/11/21 02:11:35;;;;;;;1999.90;999.90;;;-0.70;99.90;;;;;;5036812;28;20052;-68
2022/11/21 02:14:01;;;;;;;1999.90;999.90;;;-0.70;99.90;;;;;;5040526;28;20162;-68
2022/11/21 02:16:27;;;;;;;1999.90;999.90;;;-0.70;99.90;;;;;;5044856;28;20076;-68
2022/11/21 02:18:53;;;;;;;1999.90;999.90;;;-0.80;99.90;;;;;;5036572;28;20052;-67
2022/11/21 02:21:34;;;;;;;1999.90;999.90;;;-0.80;99.90;;;;;;5032930;28;20041;-68
2022/11/21 02:24:10;;;;;;;1999.90;999.90;;;-0.90;99.90;;;;;;5036188;28;20049;-67
2022/11/21 02:26:37;;;;;;;1999.90;999.90;;;-0.90;99.90;;;;;;5016330;28;20053;-68
2022/11/21 02:29:02;;;;;;;1999.90;999.90;;;-1.00;99.90;;;;;;5030723;28;20056;-68
2022/11/21 02:31:28;;;;;;;1999.90;999.90;;;-1.00;99.90;;;;;;5040588;28;20710;-68
2022/11/21 02:33:53;;;;;;;1999.90;999.90;;;-1.00;99.90;;;;;;5023011;28;20103;-68
2022/11/21 02:36:40;;;;;;;1999.90;999.90;;;-1.00;99.90;;;;;;5043307;28;20816;-68
2022/11/21 02:39:14;;;;;;;1999.90;999.90;;;-1.10;99.90;;;;;;5037618;28;20052;-68
2022/11/21 02:41:47;;;;;;;1999.90;999.90;;;-1.10;99.90;;;;;;5040496;28;20094;-67
2022/11/21 02:44:25;;;;;;;1999.90;999.90;;;-1.10;99.90;;;;;;5023851;28;20436;-68
2022/11/21 02:46:51;;;;;;;1999.90;999.90;;;-1.10;99.90;;;;;;5033873;28;20076;-68
2022/11/21 02:49:26;;;;;;;1999.90;999.90;;;-1.10;99.90;;;;;;5018446;28;20577;-67
2022/11/21 02:51:52;;;;;;;1999.90;999.90;;;-1.10;99.90;;;;;;5019558;28;20051;-67
2022/11/21 02:54:17;;;;;;;1999.90;999.90;;;-1.20;99.90;;;;;;5036273;28;20030;-67
2022/11/21 02:56:43;;;;;;;1999.90;999.90;;;-1.10;99.90;;;;;;5037863;28;20040;-67
2022/11/21 02:59:08;;;;;;;1999.90;999.90;;;-1.10;99.90;;;;;;5022307;28;20094;-67
2022/11/21 03:01:34;;;;;;;1999.90;999.90;;;-1.20;99.90;;;;;;5041366;28;20063;-67
2022/11/21 03:03:59;;;;;;;1999.90;999.90;;;-1.20;99.90;;;;;;5033978;28;20048;-67
2022/11/21 03:06:25;;;;;;;1999.90;999.90;;;-1.20;99.90;;;;;;5040701;28;20045;-67
2022/11/21 03:08:50;;;;;;;1999.90;999.90;;;-1.30;99.90;;;;;;5039993;28;20087;-67
2022/11/21 03:11:16;;;;;;;1999.90;999.90;;;-1.30;99.90;;;;;;5037231;28;20518;-67
2022/11/21 03:13:41;;;;;;;1999.90;999.90;;;-1.30;99.90;;;;;;5023705;28;20718;-67
2022/11/21 03:16:07;;;;;;;1999.90;999.90;;;-1.40;99.90;;;;;;5042801;28;20408;-67
2022/11/21 03:18:33;;;;;;;1999.90;999.90;;;-1.40;99.90;;;;;;5017624;28;20493;-67
2022/11/21 03:20:58;;;;;;;1999.90;999.90;;;-1.40;99.90;;;;;;5042120;28;20555;-67
2022/11/21 03:23:24;;;;;;;1999.90;999.90;;;-1.50;99.90;;;;;;5044594;28;20045;-67
2022/11/21 03:25:49;;;;;;;1999.90;999.90;;;-1.50;99.90;;;;;;5039607;28;20056;-67
2022/11/21 03:28:15;;;;;;;1999.90;999.90;;;-1.50;99.90;;;;;;5043026;28;20516;-67
2022/11/21 03:30:40;;;;;;;1999.90;999.90;;;-1.60;99.90;;;;;;5036762;28;20587;-67
2022/11/21 03:33:06;;;;;;;1999.90;999.90;;;-1.50;99.90;;;;;;5034721;28;20042;-67
2022/11/21 03:35:31;;;;;;;1999.90;999.90;;;-1.60;99.90;;;;;;5036401;28;20037;-67
2022/11/21 03:37:57;;;;;;;1999.90;999.90;;;-1.60;99.90;;;;;;5016157;28;20049;-67
2022/11/21 03:40:22;;;;;;;1999.90;999.90;;;-1.60;99.90;;;;;;5041051;28;20043;-67
2022/11/21 03:42:48;;;;;;;1999.90;999.90;;;-1.60;99.90;;;;;;5042742;28;20459;-67
2022/11/21 03:45:13;;;;;;;1999.90;999.90;;;-1.60;99.90;;;;;;5024967;28;20040;-67
2022/11/21 03:47:39;;;;;;;1999.90;999.90;;;-1.70;99.90;;;;;;5035610;28;20404;-67
2022/11/21 03:50:05;;;;;;;1999.90;999.90;;;-1.70;99.90;;;;;;5044937;28;20068;-67
2022/11/21 03:52:31;;;;;;;1999.90;999.90;;;-1.60;99.90;;;;;;5039408;28;20103;-67
2022/11/21 03:54:57;;;;;;;1999.90;999.90;;;-1.60;99.90;;;;;;5045603;28;20700;-67
2022/11/21 03:57:22;;;;;;;1999.90;999.90;;;-1.60;99.90;;;;;;5041025;28;20405;-67
2022/11/21 03:59:48;;;;;;;1999.90;999.90;;;-1.60;99.90;;;;;;5038937;28;20458;-67
2022/11/21 04:02:13;;;;;;;1999.90;999.90;;;-1.70;99.90;;;;;;5042695;28;20045;-67
2022/11/21 04:04:39;;;;;;;1999.90;999.90;;;-1.70;99.90;;;;;;5023709;28;20048;-67
2022/11/21 04:07:04;;;;;;;1999.90;999.90;;;-1.80;99.90;;;;;;5042145;28;20067;-67
2022/11/21 04:09:30;;;;;;;1999.90;999.90;;;-1.80;99.90;;;;;;5044724;28;20082;-67
2022/11/21 04:11:55;;;;;;;1999.90;999.90;;;-1.80;99.90;;;;;;5028814;28;20056;-67
2022/11/21 04:14:21;;;;;;;1999.90;999.90;;;-1.90;99.90;;;;;;5035204;28;20037;-67
2022/11/21 04:16:46;;;;;;;1999.90;999.90;;;-1.90;99.90;;;;;;5025541;28;20032;-67
2022/11/21 04:19:12;;;;;;;1999.90;999.90;;;-1.90;99.90;;;;;;5036974;28;20432;-67
2022/11/21 04:21:38;;;;;;;1999.90;999.90;;;-1.90;99.90;;;;;;5025087;28;20036;-67
2022/11/21 04:24:03;;;;;;;1999.90;999.90;;;-1.90;99.90;;;;;;5042897;28;20035;-67
2022/11/21 04:26:29;;;;;;;1999.90;999.90;;;-2.00;99.90;;;;;;5041755;28;20040;-67
2022/11/21 04:28:56;;;;;;;1999.90;999.90;;;-2.00;99.90;;;;;;5026354;28;20102;-67
2022/11/21 04:31:21;;;;;;;1999.90;999.90;;;-2.00;99.90;;;;;;5043723;28;20432;-67
2022/11/21 04:33:47;;;;;;;1999.90;999.90;;;-2.00;99.90;;;;;;5035111;28;20044;-67
2022/11/21 04:36:12;;;;;;;1999.90;999.90;;;-2.10;99.90;;;;;;5042066;28;20037;-67
2022/11/21 04:38:38;;;;;;;1999.90;999.90;;;-2.00;99.90;;;;;;5044424;28;20047;-67
2022/11/21 04:41:04;;;;;;;1999.90;999.90;;;-2.10;99.90;;;;;;5037544;28;20037;-67
2022/11/21 04:43:29;;;;;;;1999.90;999.90;;;-2.10;99.90;;;;;;5037858;28;20045;-67
2022/11/21 04:45:55;;;;;;;1999.90;999.90;;;-2.10;99.90;;;;;;5027035;28;20049;-67
2022/11/21 04:48:20;;;;;;;1999.90;999.90;;;-2.10;99.90;;;;;;5040435;28;20072;-67
2022/11/21 04:50:46;;;;;;;1999.90;999.90;;;-2.10;99.90;;;;;;5043954;28;20033;-67
2022/11/21 04:53:11;;;;;;;1999.90;999.90;;;-2.10;99.90;;;;;;5038480;28;20046;-67
2022/11/21 04:55:37;;;;;;;1999.90;999.90;;;-2.00;99.90;;;;;;5044373;28;20115;-67
2022/11/21 04:58:03;;;;;;;1999.90;999.90;;;-1.90;99.90;;;;;;5040925;28;20048;-67
2022/11/21 05:00:28;;;;;;;1999.90;999.90;;;-1.80;99.90;;;;;;5028095;28;20508;-67
2022/11/21 05:02:54;;;;;;;1999.90;999.90;;;-1.70;99.90;;;;;;5033342;28;20037;-67
2022/11/21 05:05:19;;;;;;;1999.90;999.90;;;-1.80;99.90;;;;;;5042303;28;20180;-67
2022/11/21 05:07:45;;;;;;;1999.90;999.90;;;-1.80;99.90;;;;;;5036695;28;20283;-67
2022/11/21 05:10:11;;;;;;;1999.90;999.90;;;-1.80;99.90;;;;;;5043888;28;20039;-67
2022/11/21 05:15:20;;;;;;;1999.90;999.90;;;-1.70;99.90;;;;;;5044705;28;20045;-67
2022/11/21 05:17:46;;;;;;;1999.90;999.90;;;-1.70;99.90;;;;;;5042519;28;20412;-67
2022/11/21 05:20:12;;;;;;;1999.90;999.90;;;-1.70;99.90;;;;;;5043241;28;20036;-67
2022/11/21 05:22:37;;;;;;;1999.90;999.90;;;-1.70;99.90;;;;;;5033918;28;20079;-67
2022/11/21 05:25:03;;;;;;;1999.90;999.90;;;-1.70;99.90;;;;;;5039669;28;20049;-67
2022/11/21 05:27:29;;;;;;;1999.90;999.90;;;-1.80;99.90;;;;;;5043997;28;20048;-67
2022/11/21 05:29:55;;;;;;;1999.90;999.90;;;-1.90;99.90;;;;;;5042412;28;20044;-67
2022/11/21 05:32:20;;;;;;;1999.90;999.90;;;-1.90;99.90;;;;;;5039456;28;20038;-67
2022/11/21 05:34:46;;;;;;;1999.90;999.90;;;-2.00;99.90;;;;;;5024411;28;20087;-67
2022/11/21 05:37:11;;;;;;;1999.90;999.90;;;-1.90;99.90;;;;;;5044982;28;20093;-67
2022/11/21 05:39:37;;;;;;;1999.90;999.90;;;-1.80;99.90;;;;;;5044866;28;20121;-68
2022/11/21 05:42:03;;;;;;;1999.90;999.90;;;-1.80;99.90;;;;;;5040904;28;20393;-67
2022/11/21 05:44:28;;;;;;;1999.90;999.90;;;-1.80;99.90;;;;;;5041151;28;20044;-67
2022/11/21 05:46:54;;;;;;;1999.90;999.90;;;-1.70;99.90;;;;;;5026386;28;20128;-67
2022/11/21 05:49:20;;;;;;;1999.90;999.90;;;-1.70;99.90;;;;;;5039651;28;20053;-67
2022/11/21 05:51:45;;;;;;;1999.90;999.90;;;-1.70;99.90;;;;;;5043995;28;20485;-67
2022/11/21 05:54:13;;;;;;;1999.90;999.90;;;-1.60;99.90;;;;;;5040464;28;20041;-67
2022/11/21 05:56:39;;;;;;;1999.90;999.90;;;-1.50;99.90;;;;;;5039635;28;20040;-67
2022/11/21 05:59:05;;;;;;;1999.90;999.90;;;-1.50;99.90;;;;;;5039707;28;20155;-67
2022/11/21 06:04:14;;;;;;;1999.90;999.90;;;-1.60;99.90;;;;;;5041920;28;20045;-67
2022/11/21 06:06:40;;;;;;;1999.90;999.90;;;-1.70;99.90;;;;;;5041655;28;20516;-67
2022/11/21 06:09:06;;;;;;;1999.90;999.90;;;-1.80;99.90;;;;;;5039404;28;20607;-67
2022/11/21 06:11:32;;;;;;;1999.90;999.90;;;-1.80;99.90;;;;;;5019737;28;20083;-67
2022/11/21 06:13:57;;;;;;;1999.90;999.90;;;-1.80;99.90;;;;;;5036631;28;21326;-67
2022/11/21 06:16:23;;;;;;;1999.90;999.90;;;-1.80;99.90;;;;;;5042012;28;20385;-67
2022/11/21 06:18:53;;;;;;;1999.90;999.90;;;-1.90;99.90;;;;;;5016877;28;20457;-67
2022/11/21 06:21:27;;;;;;;1999.90;999.90;;;-2.00;99.90;;;;;;5041495;28;20660;-67
2022/11/21 06:23:54;;;;;;;1999.90;999.90;;;-2.00;99.90;;;;;;5035756;28;20046;-66
2022/11/21 06:26:22;;;;;;;1999.90;999.90;;;-2.10;99.90;;;;;;5025064;28;20044;-67
2022/11/21 06:28:48;;;;;;;1999.90;999.90;;;-2.10;99.90;;;;;;5040344;28;20042;-66
2022/11/21 06:31:16;;;;;;;1999.90;999.90;;;-2.20;99.90;;;;;;5043021;28;20063;-66
2022/11/21 06:33:43;;;;;;;1999.90;999.90;;;-2.30;99.90;;;;;;5039549;28;20089;-67
2022/11/21 06:36:14;;;;;;;1999.90;999.90;;;-2.40;99.90;;;;;;5040071;28;20108;-66
2022/11/21 06:38:40;;;;;;;1999.90;999.90;;;-2.40;99.90;;;;;;5036997;28;20155;-66
2022/11/21 06:41:13;;;;;;;1999.90;999.90;;;-2.30;99.90;;;;;;5049691;28;20049;-66
2022/11/21 06:43:39;;;;;;;;;;;-2.30;99.90;;;;;;5037480;28;20036;-67
2022/11/21 06:46:05;;;;;;;1999.90;999.90;;;-2.20;99.90;;;;;;5041849;28;19921;-66
2022/11/21 06:48:31;;;;;;;1999.90;999.90;;;-2.20;99.90;;;;;;5040543;28;20508;-66
2022/11/21 06:50:58;;;;;;;1999.90;999.90;;;-2.20;99.90;;;;;;5017852;28;20033;-67
2022/11/21 06:53:23;;;;;;;1999.90;999.90;;;-2.20;99.90;;;;;;5039083;28;20044;-66
2022/11/21 06:55:49;;;;;;;1999.90;999.90;;;-2.20;99.90;;;;;;5041051;28;20033;-66
2022/11/21 06:58:14;;;;;;;1999.90;999.90;;;-2.10;99.90;;;;;;5039497;28;20041;-66
2022/11/21 07:00:40;;;;;;;1999.90;999.90;;;-2.00;99.90;;;;;;5040006;28;20120;-66
2022/11/21 07:03:05;;;;;;;1999.90;999.90;;;-1.90;99.90;;;;;;5037982;28;20049;-66
2022/11/21 07:05:32;;;;;;;1999.90;999.90;;;-2.00;99.90;;;;;;5042143;28;20041;-66
2022/11/21 07:08:02;;;;;;;1999.90;999.90;;;-2.00;99.90;;;;;;5040726;28;20052;-66
2022/11/21 07:10:29;;;;;;;1999.90;999.90;;;-2.00;99.90;;;;;;4998043;28;20044;-66
2022/11/21 07:15:43;;;;;;;1999.90;999.90;;;-2.10;99.90;;;;;;5039940;28;20428;-66
2022/11/21 07:18:09;;;;;;;1999.90;999.90;;;-2.10;99.90;;;;;;5049928;28;20410;-66
2022/11/21 07:20:34;;;;;;;1999.90;999.90;;;-2.20;99.90;;;;;;5039168;28;20083;-66
2022/11/21 07:23:00;;;;;;;1999.90;999.90;;;-2.20;99.90;;;;;;5044189;28;20049;-66
2022/11/21 07:25:26;;;;;;;1999.90;999.90;;;-2.20;99.90;;;;;;5044606;28;20108;-66
2022/11/21 07:27:51;;;;;;;1999.90;999.90;;;-2.20;99.90;;;;;;5041911;28;20044;-66
2022/11/21 07:30:17;;;;;;;1999.90;999.90;;;-2.20;99.90;;;;;;5044571;28;20112;-66
2022/11/21 07:32:43;;;;;;;1999.90;999.90;;;-2.10;99.90;;;;;;5065257;28;20098;-66
2022/11/21 07:35:09;;;;;;;1999.90;999.90;;;-2.20;99.90;;;;;;5030879;28;20282;-66
2022/11/21 07:37:38;;;;;;;1999.90;999.90;;;-2.10;99.90;;;;;;5049802;28;20041;-66
2022/11/21 07:40:04;;;;;;;1999.90;999.90;;;-2.20;99.90;;;;;;5047484;28;20087;-66
2022/11/21 07:42:32;;;;;;;1999.90;999.90;;;-2.20;99.90;;;;;;5027028;28;20546;-66
2022/11/21 07:44:57;;;;;;;1999.90;999.90;;;-2.20;99.90;;;;;;5048330;28;20041;-66
2022/11/21 07:47:23;;;;;;;1999.90;999.90;;;-2.20;99.90;;;;;;5046845;28;20064;-66
2022/11/21 07:49:48;;;;;;;1999.90;999.90;;;-2.20;99.90;;;;;;5029166;28;20043;-66
2022/11/21 07:52:14;;;;;;;1999.90;999.90;;;-2.10;99.90;;;;;;5038668;28;20041;-66
2022/11/21 07:54:39;;;;;;;1999.90;999.90;;;-2.00;99.90;;;;;;5049364;28;20546;-66
2022/11/21 07:57:05;;;;;;;1999.90;999.90;;;-1.80;99.90;;;;;;5045914;28;20049;-66
2022/11/21 07:59:30;;;;;;;1999.90;999.90;;;-1.60;99.90;;;;;;5030542;28;20506;-66
2022/11/21 08:01:56;;;;;;;1999.90;999.90;;;-1.50;99.90;;;;;;5039376;28;20040;-66
2022/11/21 08:04:22;;;;;;;1999.90;999.90;;;-1.20;99.90;;;;;;5024058;28;20047;-67
2022/11/21 08:06:47;;;;;;;1999.90;999.90;;;-0.90;99.90;;;;;;5042748;28;20159;-66
2022/11/21 08:09:13;;;;;;;1999.90;999.90;;;-0.60;99.90;;;;;;5050022;28;20048;-67
2022/11/21 08:11:38;;;;;;;1999.90;999.90;;;-0.30;99.90;;;;;;5029679;28;20537;-67
2022/11/21 08:14:04;;;;;;;1999.90;999.90;;;0.10;99.90;;;;;;5050524;28;20066;-67
2022/11/21 08:16:31;;;;;;;1999.90;999.90;;;0.40;99.90;;;;;;5046337;28;20051;-66
2022/11/21 08:18:58;;;;;;;1999.90;999.90;;;0.50;99.90;;;;;;5046838;28;20123;-67
2022/11/21 08:21:24;;;;;;;1999.90;999.90;;;0.70;99.90;;;;;;5028065;28;20041;-67
2022/11/21 08:23:49;;;;;;;1999.90;999.90;;;0.90;99.90;;;;;;5040626;28;20048;-67
2022/11/21 08:26:15;;;;;;;1999.90;999.90;;;1.00;99.90;;;;;;5042167;28;20088;-67
2022/11/21 08:28:41;;;;;;;1999.90;999.90;;;1.00;99.90;;;;;;5045295;28;20454;-67
2022/11/21 08:31:07;;;;;;;1999.90;999.90;;;1.10;99.90;;;;;;5025233;28;20053;-67
2022/11/21 08:33:33;;;;;;;1999.90;999.90;;;1.50;99.90;;;;;;5038950;28;20090;-67
2022/11/21 08:36:01;;;;;;;1999.90;999.90;;;1.90;99.90;;;;;;5017588;28;20501;-67
2022/11/21 08:38:27;;;;;;;1999.90;999.90;;;2.00;99.90;;;;;;5037537;28;20041;-67
2022/11/21 08:42:01;;;;;;;1999.90;999.90;;;1.80;99.90;;;;;;5039399;28;20109;-68
2022/11/21 08:43:38;;;;;;;1999.90;999.90;;;1.50;99.90;;;;;;5035142;28;20045;-67
2022/11/21 08:46:03;;;;;;;1999.90;999.90;;;1.30;99.90;;;;;;5037310;28;20037;-67
2022/11/21 08:48:29;;;;;;;1999.90;999.90;;;1.10;99.90;;;;;;5037077;28;20040;-68
2022/11/21 08:50:56;;;;;;;1999.90;999.90;;;1.00;99.90;;;;;;5040296;28;20274;-67
2022/11/21 08:53:22;;;;;;;1999.90;999.90;;;0.80;99.90;;;;;;5052387;28;20052;-67
2022/11/21 08:55:48;;;;;;;1999.90;999.90;;;0.80;99.90;;;;;;5038695;28;20116;-67
2022/11/21 08:58:13;;;;;;;1999.90;999.90;;;0.70;99.90;;;;;;5023984;28;20048;-68
2022/11/21 09:00:39;;;;;;;1999.90;999.90;;;0.70;99.90;;;;;;5036996;28;20405;-67
2022/11/21 09:03:05;;;;;;;1999.90;999.90;;;0.70;99.90;;;;;;5038419;28;20409;-67
2022/11/21 09:05:31;;;;;;;1999.90;999.90;;;0.70;99.90;;;;;;5045717;28;20032;-67
2022/11/21 09:07:57;;;;;;;1999.90;999.90;;;0.70;99.90;;;;;;5044078;28;20095;-68
2022/11/21 09:10:24;;;;;;;1999.90;999.90;;;0.70;99.90;;;;;;5036428;28;20029;-67
2022/11/21 09:12:49;;;;;;;1999.90;999.90;;;0.70;99.90;;;;;;5039139;28;20045;-68
2022/11/21 09:18:03;;;;;;;1999.90;999.90;;;0.70;99.90;;;;;;5040668;28;20052;-67
2022/11/21 09:20:29;;;;;;;1999.90;999.90;;;0.80;99.90;;;;;;5036117;28;20112;-68
2022/11/21 09:22:55;;;;;;;1999.90;999.90;;;0.80;99.90;;;;;;5055158;28;20053;-68
2022/11/21 09:25:20;;;;;;;1999.90;999.90;;;0.80;99.90;;;;;;5037668;28;20053;-68
2022/11/21 09:27:46;;;;;;;1999.90;999.90;;;0.80;99.90;;;;;;5037941;28;20080;-67
2022/11/21 09:30:12;;;;;;;1999.90;999.90;;;0.80;99.90;;;;;;5040072;28;20052;-68
2022/11/21 09:32:39;;;;;;;1999.90;999.90;;;0.80;99.90;;;;;;5034729;28;20033;-67
2022/11/21 09:35:05;;;;;;;1999.90;999.90;;;0.90;99.90;;;;;;5042761;28;20412;-67
2022/11/21 09:37:36;;;;;;;1999.90;999.90;;;0.90;99.90;;;;;;5040329;28;20044;-68
2022/11/21 09:40:03;;;;;;;1999.90;999.90;;;0.90;99.90;;;;;;5037578;28;20087;-68
2022/11/21 09:43:02;;;;;;;1999.90;999.90;;;1.00;99.90;;;;;;5040758;28;20149;-68
2022/11/21 09:45:36;;;;;;;1999.90;999.90;;;1.00;99.90;;;;;;5035028;28;20092;-68
2022/11/21 09:48:07;;;;;;;1999.90;999.90;;;1.00;99.90;;;;;;5042550;28;20427;-68
2022/11/21 09:50:34;;;;;;;1999.90;999.90;;;1.10;99.90;;;;;;5040771;28;20120;-68
2022/11/21 09:53:00;;;;;;;1999.90;999.90;;;1.10;99.90;;;;;;5039922;28;20494;-68
2022/11/21 09:55:34;;;;;;;1999.90;999.90;;;1.10;99.90;;;;;;5039812;28;20128;-68
2022/11/21 09:58:03;;;;;;;1999.90;999.90;;;1.20;99.90;;;;;;5044907;28;20043;-68
2022/11/21 10:00:29;;;;;;;1999.90;999.90;;;1.20;99.90;;;;;;5031922;28;20033;-68
2022/11/21 10:02:56;;;;;;;1999.90;999.90;;;1.30;99.90;;;;;;5033233;28;20678;-68
2022/11/21 10:05:51;;;;;;;1999.90;999.90;;;1.30;99.90;;;;;;5048209;28;20037;-67
2022/11/21 10:08:26;;;;;;;1999.90;999.90;;;1.30;99.90;;;;;;5036426;28;20463;-68
2022/11/21 10:11:07;;;;;;;1999.90;999.90;;;1.40;99.90;;;;;;5039705;28;20131;-68
2022/11/21 10:13:52;;;;;;;1999.90;999.90;;;1.40;99.90;;;;;;5041307;28;20037;-68
2022/11/21 10:16:29;;;;;;;1999.90;999.90;;;1.40;99.90;;;;;;5020720;28;20489;-68
2022/11/21 10:19:15;;;;;;;1999.90;999.90;;;1.50;99.90;;;;;;5036390;28;20056;-68
2022/11/21 10:22:02;;;;;;;1999.90;999.90;;;1.50;99.90;;;;;;5016915;28;20049;-68
2022/11/21 10:24:47;;;;;;;1999.90;999.90;;;1.50;99.90;;;;;;5038441;28;20105;-68
2022/11/21 10:27:28;;;;;;;1999.90;999.90;;;1.60;99.90;;;;;;5041697;28;20413;-68
2022/11/21 10:30:18;;;;;;;1999.90;999.90;;;1.60;99.90;;;;;;5037488;28;20045;-68
2022/11/21 10:32:49;;;;;;;1999.90;999.90;;;1.60;99.90;;;;;;5029749;28;20055;-68
2022/11/21 10:35:19;;;;;;;1999.90;999.90;;;1.70;99.90;;;;;;5038922;28;20037;-68
2022/11/21 10:37:50;;;;;;;1999.90;999.90;;;1.70;99.90;;;;;;5034306;28;20045;-68
2022/11/21 10:40:36;;;;;;;1999.90;999.90;;;1.70;99.90;;;;;;5034147;28;20056;-68
2022/11/21 10:46:22;;;;;;;1999.90;999.90;;;1.80;99.90;;;;;;5036005;28;20060;-68
2022/11/21 10:48:57;;;;;;;1999.90;999.90;;;1.80;99.90;;;;;;5052651;28;20689;-68
2022/11/21 10:51:57;;;;;;;1999.90;999.90;;;1.90;99.90;;;;;;5022693;28;20143;-68
2022/11/21 10:54:32;;;;;;;1999.90;999.90;;;1.90;99.90;;;;;;5021983;28;20095;-68
2022/11/21 10:57:15;;;;;;;1999.90;999.90;;;2.00;99.90;;;;;;5041263;28;20471;-68
2022/11/21 10:59:56;;;;;;;1999.90;999.90;;;2.00;99.90;;;;;;5040034;28;20047;-68
2022/11/21 11:02:24;;;;;;;1999.90;999.90;;;2.00;99.90;;;;;;5039148;28;20049;-68
2022/11/21 11:05:15;;;;;;;1999.90;999.90;;;2.00;99.90;;;;;;5038719;28;20041;-68
2022/11/21 11:07:42;;;;;;;1999.90;999.90;;;2.00;99.90;;;;;;5049846;28;20190;-68
2022/11/21 11:10:21;;;;;;;1999.90;999.90;;;2.00;99.90;;;;;;5040110;28;20469;-68
2022/11/21 11:15:33;;;;;;;1999.90;999.90;;;2.20;99.90;;;;;;5039169;28;20049;-68
2022/11/21 11:18:01;;;;;;;1999.90;999.90;;;2.20;99.90;;;;;;5047058;28;20103;-68
2022/11/21 11:20:37;;;;;;;1999.90;999.90;;;2.20;99.90;;;;;;5036242;28;20047;-68
2022/11/21 11:23:16;;;;;;;1999.90;999.90;;;2.20;99.90;;;;;;5038777;28;20133;-68
2022/11/21 11:25:50;;;;;;;1999.90;999.90;;;2.20;99.90;;;;;;5040940;28;20064;-68
2022/11/21 11:28:18;;;;;;;1999.90;999.90;;;2.20;99.90;;;;;;5041717;28;20045;-68
2022/11/21 11:30:44;;;;;;;1999.90;999.90;;;2.30;99.90;;;;;;5041592;28;20116;-68
2022/11/21 11:33:35;;;;;;;1999.90;999.90;;;2.30;99.90;;;;;;5037518;28;20556;-68
2022/11/21 11:36:14;;;;;;;1999.90;999.90;;;2.40;99.90;;;;;;5034351;28;20041;-68
2022/11/21 11:38:44;;;;;;;1999.90;999.90;;;2.30;99.90;;;;;;5034801;28;20032;-68
2022/11/21 11:47:57;;;;;;;1999.90;999.90;;;2.40;99.90;;;;;;5032843;28;20049;-68
2022/11/21 11:50:46;;;;;;;1999.90;999.90;;;2.50;99.90;;;;;;5031362;28;20393;-68
2022/11/21 11:53:21;;;;;;;1999.90;999.90;;;2.50;99.90;;;;;;5032466;28;20044;-68
2022/11/21 11:56:21;;;;;;;1999.90;999.90;;;2.60;99.90;;;;;;5040473;28;20094;-68
2022/11/21 11:58:52;;;;;;;1999.90;999.90;;;2.60;99.90;;;;;;5034315;28;20049;-68
2022/11/21 12:01:53;;;;;;;1999.90;999.90;;;2.70;99.90;;;;;;5035692;28;20135;-68
2022/11/21 12:04:24;;;;;;;1999.90;999.90;;;2.80;99.90;;;;;;4981913;28;20517;-68
2022/11/21 12:07:05;;;;;;;1999.90;999.90;;;2.90;99.90;;;;;;4984691;28;20108;-68
2022/11/21 12:09:56;;;;;;;1999.90;999.90;;;2.90;99.90;;;;;;4998816;28;20532;-68
2022/11/21 12:12:24;;;;;;;1999.90;999.90;;;3.00;99.90;;;;;;4973927;28;20202;-68
2022/11/21 12:18:12;;;;;;;1999.90;999.90;;;3.10;99.90;;;;;;4978736;28;20054;-68
2022/11/21 12:21:00;;;;;;;1999.90;999.90;;;3.20;99.90;;;;;;4973625;28;20046;-68
2022/11/21 12:23:46;;;;;;;1999.90;999.90;;;3.20;99.90;;;;;;4996049;28;20462;-68
2022/11/21 12:26:19;;;;;;;1999.90;999.90;;;3.30;99.90;;;;;;4957133;28;20117;-68
2022/11/21 12:28:50;;;;;;;1999.90;999.90;;;3.30;99.90;;;;;;4997663;28;20044;-68
2022/11/21 12:31:31;;;;;;;1999.90;999.90;;;3.30;99.90;;;;;;4973589;28;20045;-68
2022/11/21 12:34:30;;;;;;;1999.90;999.90;;;3.30;99.90;;;;;;4981608;28;20445;-68
2022/11/21 12:37:07;;;;;;;1999.90;999.90;;;3.40;99.90;;;;;;4998289;28;20486;-68
2022/11/21 12:39:57;;;;;;;1999.90;999.90;;;3.40;99.90;;;;;;5000236;28;20135;-68